createdAt,value
2019-05-17T00:01:29.407Z,13.17
2019-05-17T00:04:01.507Z,12.77
2019-05-17T00:06:33.564Z,14.27
2019-05-17T00:09:07.334Z,11.37
2019-05-17T00:11:39.350Z,14.93
2019-05-17T00:14:11.369Z,12.37
2019-05-17T00:16:43.495Z,12.23
2019-05-17T00:19:16.975Z,11.70
2019-05-17T00:21:49.053Z,12.10
2019-05-17T00:24:21.351Z,12.67
2019-05-17T00:26:53.447Z,13.97
2019-05-17T00:29:26.459Z,13.47
2019-05-17T00:31:58.572Z,12.70
2019-05-17T00:34:30.519Z,11.77
2019-05-17T00:37:02.567Z,12.00
2019-05-17T00:39:36.674Z,11.37
2019-05-17T00:42:08.171Z,13.40
2019-05-17T00:44:40.128Z,13.27
2019-05-17T00:47:12.790Z,12.57
2019-05-17T00:49:46.480Z,12.50
2019-05-17T00:52:18.565Z,10.60
2019-05-17T00:54:50.683Z,13.40
2019-05-17T00:57:22.620Z,13.10
2019-05-17T00:59:56.486Z,12.77
2019-05-17T01:02:28.348Z,14.73
2019-05-17T01:05:00.456Z,13.60
2019-05-17T01:07:32.863Z,14.10
2019-05-17T01:10:06.987Z,13.30
2019-05-17T01:12:39.327Z,13.23
2019-05-17T01:15:11.841Z,10.73
2019-05-17T01:17:43.794Z,12.37
2019-05-17T01:20:17.408Z,14.73
2019-05-17T01:22:49.597Z,11.70
2019-05-17T01:25:21.767Z,11.57
2019-05-17T01:27:56.280Z,12.33
2019-05-17T01:30:27.610Z,11.47
2019-05-17T01:32:59.587Z,13.37
2019-05-17T01:35:31.584Z,11.67
2019-05-17T01:38:03.614Z,12.33
2019-05-17T01:40:37.185Z,12.53
2019-05-17T01:43:09.314Z,12.53
2019-05-17T01:45:41.337Z,12.20
2019-05-17T01:48:13.332Z,13.07
2019-05-17T01:50:46.497Z,12.07
2019-05-17T01:53:18.524Z,11.73
2019-05-17T01:55:50.552Z,13.73
2019-05-17T01:58:22.578Z,13.00
2019-05-17T02:00:57.147Z,12.40
2019-05-17T02:03:28.171Z,15.20
2019-05-17T02:06:00.262Z,16.83
2019-05-17T02:08:32.221Z,31.33
2019-05-17T02:11:06.668Z,18.50
2019-05-17T02:13:38.439Z,17.47
2019-05-17T02:16:10.464Z,12.87
2019-05-17T02:18:42.485Z,10.73
2019-05-17T02:21:16.682Z,11.83
2019-05-17T02:23:48.329Z,13.77
2019-05-17T02:26:20.521Z,11.80
2019-05-17T02:28:52.499Z,13.03
2019-05-17T02:31:24.864Z,12.13
2019-05-17T02:33:57.356Z,11.77
2019-05-17T02:36:29.511Z,12.47
2019-05-17T02:39:03.687Z,10.97
2019-05-17T02:41:35.625Z,12.27
2019-05-17T02:44:08.097Z,11.87
2019-05-17T02:46:43.066Z,11.80
2019-05-17T02:49:14.003Z,12.20
2019-05-17T02:51:46.058Z,11.27
2019-05-17T02:54:18.188Z,10.80
2019-05-17T02:56:53.657Z,12.50
2019-05-17T02:59:24.209Z,13.17
2019-05-17T03:01:56.221Z,13.37
2019-05-17T03:04:28.342Z,13.00
2019-05-17T03:07:03.453Z,13.13
2019-05-17T03:09:34.285Z,12.40
2019-05-17T03:12:06.224Z,11.03
2019-05-17T03:14:38.172Z,13.83
2019-05-17T03:17:13.774Z,12.10
2019-05-17T03:19:43.947Z,12.50
2019-05-17T03:22:16.018Z,13.80
2019-05-17T03:24:48.020Z,13.17
2019-05-17T03:27:23.075Z,13.63
2019-05-17T03:29:53.972Z,11.90
2019-05-17T03:32:27.316Z,11.80
2019-05-17T03:35:06.075Z,14.20
2019-05-17T03:37:37.693Z,13.23
2019-05-17T03:40:23.557Z,12.67
2019-05-17T03:42:43.034Z,11.33
2019-05-17T03:45:15.536Z,11.93
2019-05-17T03:47:47.699Z,11.27
2019-05-17T03:50:22.712Z,11.20
2019-05-17T03:52:53.816Z,12.93
2019-05-17T03:55:25.770Z,12.90
2019-05-17T03:57:57.865Z,11.47
2019-05-17T04:00:35.319Z,12.27
2019-05-17T04:03:06.003Z,12.70
2019-05-17T04:05:38.193Z,11.73
2019-05-17T04:08:13.639Z,11.10
2019-05-17T04:10:44.191Z,9.23
2019-05-17T04:13:16.288Z,11.63
2019-05-17T04:15:48.395Z,13.80
2019-05-17T04:18:23.343Z,10.93
2019-05-17T04:20:54.388Z,11.53
2019-05-17T04:23:26.514Z,12.07
2019-05-17T04:25:58.716Z,12.30
2019-05-17T04:28:33.509Z,12.53
2019-05-17T04:31:04.976Z,10.70
2019-05-17T04:33:37.264Z,11.30
2019-05-17T04:36:09.404Z,11.07
2019-05-17T04:38:43.567Z,9.77
2019-05-17T04:41:15.133Z,12.90
2019-05-17T04:43:47.329Z,12.63
2019-05-17T04:46:19.567Z,11.13
2019-05-17T04:48:53.802Z,10.30
2019-05-17T04:51:26.249Z,11.87
2019-05-17T04:53:58.359Z,10.70
2019-05-17T04:56:33.002Z,11.63
2019-05-17T04:59:04.638Z,10.83
2019-05-17T05:01:36.625Z,10.97
2019-05-17T05:04:08.673Z,10.77
2019-05-17T05:06:43.644Z,12.13
2019-05-17T05:09:15.012Z,10.63
2019-05-17T05:11:57.115Z,11.70
2019-05-17T05:14:23.331Z,10.70
2019-05-17T05:16:54.840Z,10.30
2019-05-17T05:19:26.917Z,10.53
2019-05-17T05:21:59.229Z,10.43
2019-05-17T05:24:31.597Z,11.83
2019-05-17T05:27:03.813Z,10.00
2019-05-17T05:29:35.885Z,12.30
2019-05-17T05:32:08.034Z,9.97
2019-05-17T05:34:40.111Z,9.67
2019-05-17T05:37:12.623Z,10.33
2019-05-17T05:39:44.910Z,10.37
2019-05-17T05:42:17.083Z,11.13
2019-05-17T05:44:49.349Z,9.07
2019-05-17T05:47:22.190Z,9.20
2019-05-17T05:49:54.382Z,10.03
2019-05-17T05:52:26.611Z,11.07
2019-05-17T05:54:58.854Z,8.33
2019-05-17T05:57:32.185Z,11.50
2019-05-17T06:00:05.242Z,8.20
2019-05-17T06:02:37.401Z,8.83
2019-05-17T06:05:14.970Z,7.87
2019-05-17T06:07:44.307Z,10.93
2019-05-17T06:10:17.868Z,8.90
2019-05-17T06:12:51.750Z,7.20
2019-05-17T06:15:25.027Z,7.57
2019-05-17T06:17:57.028Z,8.57
2019-05-17T06:20:29.268Z,8.33
2019-05-17T06:23:02.575Z,8.40
2019-05-17T06:25:34.765Z,7.67
2019-05-17T06:28:07.126Z,7.73
2019-05-17T06:30:39.357Z,7.50
2019-05-17T06:33:13.378Z,9.53
2019-05-17T06:35:45.287Z,7.63
2019-05-17T06:38:17.394Z,7.33
2019-05-17T06:40:49.465Z,7.27
2019-05-17T06:43:21.728Z,6.80
2019-05-17T06:45:53.780Z,6.33
2019-05-17T06:48:25.957Z,9.13
2019-05-17T06:50:58.037Z,6.93
2019-05-17T06:53:32.360Z,6.13
2019-05-17T06:56:04.243Z,6.13
2019-05-17T06:58:36.468Z,7.70
2019-05-17T07:01:09.513Z,7.23
2019-05-17T07:03:42.258Z,9.33
2019-05-17T07:06:15.962Z,7.17
2019-05-17T07:08:49.557Z,9.30
2019-05-17T07:11:21.663Z,6.67
2019-05-17T07:13:53.988Z,6.67
2019-05-17T07:16:26.077Z,6.27
2019-05-17T07:18:59.767Z,6.87
2019-05-17T07:21:32.040Z,7.10
2019-05-17T07:24:04.258Z,7.30
2019-05-17T07:26:36.311Z,7.20
2019-05-17T07:29:10.086Z,8.70
2019-05-17T07:31:42.473Z,7.30
2019-05-17T07:34:14.689Z,7.27
2019-05-17T07:36:46.944Z,6.80
2019-05-17T07:39:20.492Z,8.17
2019-05-17T07:41:52.728Z,6.53
2019-05-17T07:44:24.857Z,6.77
2019-05-17T07:46:56.990Z,7.53
2019-05-17T07:49:29.452Z,7.73
2019-05-17T07:52:01.702Z,6.93
2019-05-17T07:54:33.777Z,6.80
2019-05-17T07:57:06.386Z,8.03
2019-05-17T07:59:39.735Z,6.73
2019-05-17T08:02:12.181Z,6.60
2019-05-17T08:04:44.398Z,6.67
2019-05-17T08:07:16.543Z,9.23
2019-05-17T08:09:50.628Z,7.40
2019-05-17T08:12:22.427Z,7.20
2019-05-17T08:14:54.562Z,8.47
2019-05-17T08:17:26.722Z,8.03
2019-05-17T08:20:00.566Z,8.60
2019-05-17T08:22:32.548Z,7.07
2019-05-17T08:25:05.040Z,7.67
2019-05-17T08:27:37.168Z,7.03
2019-05-17T08:30:10.641Z,7.27
2019-05-17T08:32:42.901Z,8.10
2019-05-17T08:35:14.936Z,7.50
2019-05-17T08:37:49.720Z,7.67
2019-05-17T08:40:20.810Z,8.80
2019-05-17T08:42:53.104Z,8.40
2019-05-17T08:45:25.230Z,8.37
2019-05-17T08:47:57.336Z,8.60
2019-05-17T08:50:29.589Z,10.30
2019-05-17T08:53:01.756Z,16.40
2019-05-17T08:55:33.982Z,10.97
2019-05-17T08:58:06.115Z,9.87
2019-05-17T09:00:40.547Z,10.73
2019-05-17T09:03:12.269Z,9.47
2019-05-17T09:05:44.358Z,9.87
2019-05-17T09:08:16.559Z,9.50
2019-05-17T09:10:50.480Z,10.87
2019-05-17T09:13:22.432Z,10.27
2019-05-17T09:15:54.480Z,10.20
2019-05-17T09:18:26.607Z,10.27
2019-05-17T09:21:00.287Z,10.53
2019-05-17T09:23:32.361Z,11.10
2019-05-17T09:26:04.670Z,10.43
2019-05-17T09:28:39.227Z,10.27
2019-05-17T09:31:10.660Z,9.20
2019-05-17T09:33:42.732Z,8.60
2019-05-17T09:36:15.181Z,10.07
2019-05-17T09:38:49.312Z,9.10
2019-05-17T09:41:21.017Z,9.47
2019-05-17T09:43:53.216Z,9.67
2019-05-17T09:46:25.347Z,7.90
2019-05-17T09:48:57.460Z,9.33
2019-05-17T09:51:30.317Z,11.00
2019-05-17T09:54:02.658Z,9.03
2019-05-17T09:56:35.005Z,8.87
2019-05-17T09:59:09.754Z,11.47
2019-05-17T10:01:41.253Z,10.90
2019-05-17T10:04:13.980Z,9.57
2019-05-17T10:06:46.241Z,12.37
2019-05-17T10:09:19.585Z,8.07
2019-05-17T10:11:51.823Z,8.90
2019-05-17T10:14:28.121Z,10.73
2019-05-17T10:17:00.173Z,8.83
2019-05-17T10:19:31.517Z,10.43
2019-05-17T10:22:03.742Z,8.83
2019-05-17T10:24:38.835Z,7.50
2019-05-17T10:27:10.907Z,7.90
2019-05-17T10:29:43.307Z,10.07
2019-05-17T10:32:15.326Z,8.03
2019-05-17T10:34:49.464Z,13.33
2019-05-17T10:37:21.412Z,10.17
2019-05-17T10:39:53.753Z,10.40
2019-05-17T10:42:26.037Z,16.43
2019-05-17T10:44:59.949Z,8.37
2019-05-17T10:47:32.137Z,9.93
2019-05-17T10:50:04.548Z,9.47
2019-05-17T10:52:36.792Z,9.20
2019-05-17T10:55:10.584Z,9.03
2019-05-17T10:57:43.081Z,7.77
2019-05-17T11:00:15.800Z,8.03
2019-05-17T11:02:50.246Z,9.00
2019-05-17T11:05:22.032Z,9.67
2019-05-17T11:07:54.312Z,8.43
2019-05-17T11:10:26.425Z,9.37
2019-05-17T11:12:58.635Z,13.07
2019-05-17T11:15:31.068Z,8.83
2019-05-17T11:18:03.213Z,8.60
2019-05-17T11:20:35.567Z,8.27
2019-05-17T11:23:07.939Z,12.43
2019-05-17T11:25:45.366Z,10.67
2019-05-17T11:28:14.418Z,9.33
2019-05-17T11:30:46.743Z,8.87
2019-05-17T11:33:18.962Z,12.23
2019-05-17T11:35:51.154Z,8.37
2019-05-17T11:38:23.223Z,10.93
2019-05-17T11:40:55.368Z,7.23
2019-05-17T11:43:27.689Z,7.60
2019-05-17T11:45:59.704Z,10.07
2019-05-17T11:48:32.204Z,7.77
2019-05-17T11:51:04.323Z,6.80
2019-05-17T11:53:36.685Z,9.40
2019-05-17T11:56:08.929Z,10.70
2019-05-17T11:58:41.285Z,8.87
2019-05-17T12:01:13.557Z,8.50
2019-05-17T12:03:46.047Z,7.33
2019-05-17T12:06:18.192Z,9.73
2019-05-17T12:08:50.280Z,10.87
2019-05-17T12:11:22.550Z,8.23
2019-05-17T12:13:55.035Z,8.50
2019-05-17T12:16:27.238Z,8.23
2019-05-17T12:18:59.490Z,11.50
2019-05-17T12:21:31.776Z,9.20
2019-05-17T12:24:03.801Z,8.23
2019-05-17T12:26:35.883Z,8.70
2019-05-17T12:29:08.104Z,7.60
2019-05-17T12:31:40.489Z,8.20
2019-05-17T12:34:13.991Z,7.17
2019-05-17T12:36:46.226Z,7.43
2019-05-17T12:39:18.395Z,9.17
2019-05-17T12:41:50.667Z,8.97
2019-05-17T12:44:23.091Z,8.93
2019-05-17T12:46:55.396Z,7.70
2019-05-17T12:49:27.775Z,7.93
2019-05-17T12:51:59.823Z,7.37
2019-05-17T12:54:32.227Z,10.00
2019-05-17T12:57:05.027Z,9.43
2019-05-17T12:59:37.465Z,9.93
2019-05-17T13:02:12.316Z,7.43
2019-05-17T13:04:43.772Z,9.47
2019-05-17T13:07:16.249Z,9.90
2019-05-17T13:09:48.548Z,8.60
2019-05-17T13:12:20.773Z,8.33
2019-05-17T13:14:53.144Z,14.07
2019-05-17T13:17:25.494Z,7.97
2019-05-17T13:19:57.818Z,10.27
2019-05-17T13:22:30.046Z,8.90
2019-05-17T13:25:02.346Z,12.73
2019-05-17T13:27:38.538Z,14.97
2019-05-17T13:30:09.545Z,9.47
2019-05-17T13:32:41.836Z,9.13
2019-05-17T13:35:15.573Z,13.30
2019-05-17T13:37:47.799Z,10.13
2019-05-17T13:40:20.393Z,10.47
2019-05-17T13:42:52.595Z,12.03
2019-05-17T13:45:24.718Z,10.50
2019-05-17T13:47:56.971Z,7.13
2019-05-17T13:50:29.335Z,7.93
2019-05-17T13:53:01.441Z,9.80
2019-05-17T13:55:33.648Z,8.60
2019-05-17T13:58:05.894Z,9.50
2019-05-17T14:00:38.175Z,9.90
2019-05-17T14:03:10.368Z,7.43
2019-05-17T14:05:42.630Z,11.17
2019-05-17T14:08:15.089Z,11.33
2019-05-17T14:10:48.266Z,11.30
2019-05-17T14:13:20.505Z,7.47
2019-05-17T14:15:52.633Z,7.60
2019-05-17T14:18:24.879Z,8.37
2019-05-17T14:20:57.172Z,7.53
2019-05-17T14:23:29.410Z,8.63
2019-05-17T14:26:01.659Z,6.57
2019-05-17T14:28:34.115Z,6.27
2019-05-17T14:31:06.476Z,6.87
2019-05-17T14:33:38.788Z,8.27
2019-05-17T14:36:10.895Z,10.40
2019-05-17T14:38:43.373Z,5.40
2019-05-17T14:41:15.630Z,7.97
2019-05-17T14:43:47.754Z,8.03
2019-05-17T14:46:20.226Z,5.77
2019-05-17T14:48:52.433Z,6.90
2019-05-17T14:51:24.574Z,5.57
2019-05-17T14:53:57.113Z,6.73
2019-05-17T14:56:29.564Z,5.97
2019-05-17T14:59:02.153Z,5.47
2019-05-17T15:01:34.839Z,5.57
2019-05-17T15:04:07.307Z,5.23
2019-05-17T15:06:39.559Z,5.83
2019-05-17T15:09:11.900Z,5.40
2019-05-17T15:11:44.102Z,5.83
2019-05-17T15:14:16.362Z,5.67
2019-05-17T15:16:48.489Z,4.90
2019-05-17T15:19:20.609Z,4.90
2019-05-17T15:21:53.089Z,5.70
2019-05-17T15:24:25.340Z,9.50
2019-05-17T15:27:05.398Z,7.07
2019-05-17T15:29:31.656Z,6.17
2019-05-17T15:32:03.884Z,5.67
2019-05-17T15:34:36.331Z,5.50
2019-05-17T15:37:08.674Z,7.90
2019-05-17T15:39:41.104Z,8.23
2019-05-17T15:42:13.493Z,5.00
2019-05-17T15:44:46.082Z,6.00
2019-05-17T15:47:18.274Z,5.90
2019-05-17T15:49:50.326Z,7.47
2019-05-17T15:52:22.451Z,6.37
2019-05-17T15:54:54.716Z,5.40
2019-05-17T15:57:26.852Z,6.27
2019-05-17T15:59:59.126Z,5.70
2019-05-17T16:02:31.456Z,6.13
2019-05-17T16:05:03.773Z,6.23
2019-05-17T16:07:35.954Z,7.30
2019-05-17T16:10:09.483Z,7.20
2019-05-17T16:12:41.663Z,7.10
2019-05-17T16:15:14.706Z,5.87
2019-05-17T16:17:46.944Z,5.57
2019-05-17T16:20:19.423Z,6.87
2019-05-17T16:22:51.987Z,5.37
2019-05-17T16:25:24.371Z,7.13
2019-05-17T16:27:56.583Z,6.43
2019-05-17T16:30:28.961Z,7.83
2019-05-17T16:33:01.200Z,5.33
2019-05-17T16:35:33.624Z,8.03
2019-05-17T16:38:06.099Z,7.27
2019-05-17T16:40:38.378Z,6.00
2019-05-17T16:43:18.224Z,44.00
2019-05-17T16:45:44.845Z,7.20
2019-05-17T16:48:17.160Z,6.40
2019-05-17T16:50:49.583Z,7.63
2019-05-17T16:53:21.715Z,6.07
2019-05-17T16:55:54.111Z,11.33
2019-05-17T16:58:26.410Z,12.93
2019-05-17T17:01:02.810Z,7.23
2019-05-17T17:03:43.854Z,6.30
2019-05-17T17:06:10.299Z,5.73
2019-05-17T17:08:42.348Z,6.70
2019-05-17T17:11:14.638Z,8.80
2019-05-17T17:13:47.118Z,8.47
2019-05-17T17:16:19.850Z,10.00
2019-05-17T17:18:52.360Z,10.37
2019-05-17T17:21:24.726Z,9.60
2019-05-17T17:23:57.533Z,11.80
2019-05-17T17:26:30.363Z,10.20
2019-05-17T17:29:02.615Z,10.27
2019-05-17T17:31:34.929Z,12.30
2019-05-17T17:34:07.554Z,11.83
2019-05-17T17:36:39.787Z,14.50
2019-05-17T17:39:12.195Z,12.60
2019-05-17T17:41:44.689Z,13.33
2019-05-17T17:44:17.333Z,10.87
2019-05-17T17:46:49.476Z,14.07
2019-05-17T17:49:21.694Z,14.30
2019-05-17T17:51:54.078Z,17.40
2019-05-17T17:54:26.448Z,12.40
2019-05-17T17:56:58.842Z,13.20
2019-05-17T17:59:31.051Z,13.27
2019-05-17T18:02:03.380Z,13.00
2019-05-17T18:04:35.699Z,12.47
2019-05-17T18:07:08.217Z,13.23
2019-05-17T18:09:40.609Z,13.33
2019-05-17T18:12:12.727Z,10.30
2019-05-17T18:14:44.925Z,10.10
2019-05-17T18:17:17.355Z,11.03
2019-05-17T18:19:50.142Z,12.77
2019-05-17T18:22:22.498Z,9.60
2019-05-17T18:24:55.159Z,10.77
2019-05-17T18:27:27.741Z,9.67
2019-05-17T18:30:00.868Z,10.73
2019-05-17T18:32:33.291Z,8.80
2019-05-17T18:35:05.906Z,18.00
2019-05-17T18:37:38.914Z,29.63
2019-05-17T18:40:11.895Z,22.20
2019-05-17T18:42:44.738Z,30.33
2019-05-17T18:45:17.419Z,23.53
2019-05-17T18:47:50.611Z,20.77
2019-05-17T18:50:23.285Z,21.87
2019-05-17T18:52:55.823Z,23.37
2019-05-17T18:55:28.160Z,18.37
2019-05-17T18:58:00.441Z,19.17
2019-05-17T19:00:32.917Z,51.80
2019-05-17T19:03:05.264Z,34.47
2019-05-17T19:05:37.953Z,24.20
2019-05-17T19:08:10.321Z,27.10
2019-05-17T19:10:43.269Z,26.67
2019-05-17T19:13:15.957Z,21.03
2019-05-17T19:15:48.534Z,29.70
2019-05-17T19:18:22.464Z,22.80
2019-05-17T19:20:55.071Z,19.10
2019-05-17T19:23:27.307Z,15.30
2019-05-17T19:25:59.586Z,24.13
2019-05-17T19:28:31.783Z,20.37
2019-05-17T19:31:04.210Z,21.10
2019-05-17T19:33:36.865Z,22.00
2019-05-17T19:36:09.181Z,16.47
2019-05-17T19:38:41.573Z,18.93
2019-05-17T19:41:13.725Z,13.57
2019-05-17T19:43:46.430Z,13.77
2019-05-17T19:46:20.446Z,10.60
2019-05-17T19:48:56.018Z,15.60
2019-05-17T19:51:36.349Z,12.77
2019-05-17T19:54:10.373Z,13.13
2019-05-17T19:56:43.354Z,13.60
2019-05-17T19:59:15.549Z,15.17
2019-05-17T20:01:47.728Z,19.00
2019-05-17T20:04:19.823Z,18.70
2019-05-17T20:06:52.208Z,20.67
2019-05-17T20:09:24.386Z,20.27
2019-05-17T20:11:56.695Z,15.03
2019-05-17T20:14:29.211Z,14.37
2019-05-17T20:17:01.589Z,16.10
2019-05-17T20:19:33.972Z,15.90
2019-05-17T20:22:06.347Z,16.90
2019-05-17T20:24:38.749Z,14.40
2019-05-17T20:27:10.876Z,14.63
2019-05-17T20:29:43.050Z,18.63
2019-05-17T20:32:15.458Z,14.87
2019-05-17T20:34:47.877Z,14.17
2019-05-17T20:37:19.847Z,14.63
2019-05-17T20:39:51.973Z,13.17
2019-05-17T20:42:24.179Z,12.23
2019-05-17T20:44:56.579Z,14.20
2019-05-17T20:47:29.035Z,14.93
2019-05-17T20:50:01.437Z,13.93
2019-05-17T20:52:33.516Z,13.87
2019-05-17T20:55:09.764Z,13.30
2019-05-17T20:57:42.379Z,13.00
2019-05-17T21:00:16.433Z,14.37
2019-05-17T21:02:49.131Z,13.93
2019-05-17T21:05:21.580Z,11.83
2019-05-17T21:07:53.831Z,14.90
2019-05-17T21:10:25.812Z,15.47
2019-05-17T21:12:57.970Z,13.43
2019-05-17T21:15:30.147Z,14.67
2019-05-17T21:18:02.614Z,12.87
2019-05-17T21:20:34.830Z,11.70
2019-05-17T21:23:07.193Z,13.30
2019-05-17T21:25:39.408Z,11.50
2019-05-17T21:28:11.547Z,11.97
2019-05-17T21:30:43.779Z,12.87
2019-05-17T21:33:15.891Z,14.07
2019-05-17T21:35:48.032Z,14.27
2019-05-17T21:38:20.335Z,13.47
2019-05-17T21:40:52.623Z,13.07
2019-05-17T21:43:24.739Z,17.17
2019-05-17T21:46:04.108Z,12.53
2019-05-17T21:48:35.608Z,11.87
2019-05-17T21:51:08.157Z,11.40
2019-05-17T21:53:40.330Z,11.53
2019-05-17T21:56:14.253Z,11.33
2019-05-17T21:58:46.497Z,10.43
2019-05-17T22:01:22.642Z,11.33
2019-05-17T22:03:55.598Z,14.77
2019-05-17T22:06:27.854Z,14.30
2019-05-17T22:09:00.080Z,15.77
2019-05-17T22:11:32.534Z,14.03
2019-05-17T22:14:04.661Z,12.93
2019-05-17T22:16:36.764Z,13.87
2019-05-17T22:19:09.022Z,11.97
2019-05-17T22:21:41.049Z,11.57
2019-05-17T22:24:13.216Z,11.87
2019-05-17T22:26:45.451Z,11.30
2019-05-17T22:29:18.053Z,12.27
2019-05-17T22:31:50.302Z,13.33
2019-05-17T22:34:22.411Z,10.70
2019-05-17T22:36:54.611Z,11.77
2019-05-17T22:39:26.731Z,11.80
2019-05-17T22:41:58.931Z,11.97
2019-05-17T22:44:31.019Z,13.23
2019-05-17T22:47:03.139Z,10.67
2019-05-17T22:49:35.308Z,9.93
2019-05-17T22:52:07.557Z,10.07
2019-05-17T22:54:39.597Z,11.83
2019-05-17T22:57:11.488Z,8.77
2019-05-17T22:59:43.570Z,12.17
2019-05-17T23:02:15.539Z,9.37
2019-05-17T23:04:47.566Z,9.10
2019-05-17T23:07:19.645Z,10.07
2019-05-17T23:09:51.811Z,11.63
2019-05-17T23:12:23.859Z,10.40
2019-05-17T23:14:56.198Z,10.79
2019-05-17T23:17:28.381Z,8.97
2019-05-17T23:20:00.754Z,9.77
2019-05-17T23:22:33.334Z,8.87
2019-05-17T23:25:06.013Z,10.43
2019-05-17T23:27:38.399Z,8.27
2019-05-17T23:30:11.413Z,10.23
2019-05-17T23:32:43.323Z,8.80
2019-05-17T23:35:15.438Z,8.93
2019-05-17T23:37:47.641Z,10.03
2019-05-17T23:40:19.837Z,9.57
2019-05-17T23:42:51.718Z,9.63
2019-05-17T23:45:23.858Z,7.67
2019-05-17T23:47:55.808Z,9.17
2019-05-17T23:50:27.744Z,7.43
2019-05-17T23:52:59.729Z,6.90
2019-05-17T23:55:31.609Z,8.67
2019-05-17T23:58:03.789Z,7.87
